Omerville, Canada
Current Conditions -  °F | °C
As of 10:00 AM on Thursday 30 Oct 2014 (Local Time) from CYSC Reporting Station
Overcast Overcast  
Wind Chill:   Ceiling: 1900
Heat Index:   Visibility: 9mi
Dew Point:   Wind: 9mph
Humidity: 81%   Direction: 270°W
Pressure: 29.92"   Gusts: NA
Location:  45.28°N, 72.12°W
Report Text: CYSC 301400Z AUTO 27008KT 260V350 9SM BKN019 OVC046 05/02 A2992 RMK SLP139
Loading
Personal Weather Stations






























Interactive Weather Map
Tropical Storm Tracking
New forecast layout! Learn more

10-Day Weather Forecast

Advertisements
Track Severe Weather on mobile